International Virtual Aviation Organisation

Russian Federation and Kazakhstan MCD

 
UATG 281030Z 16008MPS CAVOK 03/M03 Q1037 R14/19//65 NOSIG RMK QFE780/1040
QNH:(hPa/inHg/mmHg)1037 / 30.62 / 778
QFE:(hPa/inHg/mmHg)1040 / 30.70 / 780
Temperature3
Dew Point-3
Visibility> 10000
WeatherCAVOK
Cloud Cover
Transition Height1570 m./5100 ft.
Transition LevelFL60
SQUAWK